sensor_id;sensor_type;location;lat;lon;timestamp;pressure;altitude;pressure_sealevel;temperature;humidity
3150;BME280;32503;47.748;8.960;2023-02-21T00:02:23;97435.44;;;6.60;61.28
3150;BME280;32503;47.748;8.960;2023-02-21T00:05:07;97442.09;;;6.54;61.22
3150;BME280;32503;47.748;8.960;2023-02-21T00:07:52;97452.06;;;6.53;61.40
3150;BME280;32503;47.748;8.960;2023-02-21T00:10:37;97442.38;;;6.43;62.11
3150;BME280;32503;47.748;8.960;2023-02-21T00:13:22;97445.34;;;6.33;61.81
3150;BME280;32503;47.748;8.960;2023-02-21T00:16:07;97446.59;;;6.27;62.03
3150;BME280;32503;47.748;8.960;2023-02-21T00:18:52;97444.38;;;6.20;62.56
3150;BME280;32503;47.748;8.960;2023-02-21T00:21:36;97438.22;;;6.20;62.38
3150;BME280;32503;47.748;8.960;2023-02-21T00:24:21;97428.22;;;6.12;62.25
3150;BME280;32503;47.748;8.960;2023-02-21T00:27:06;97434.56;;;6.16;61.58
3150;BME280;32503;47.748;8.960;2023-02-21T00:29:52;97436.13;;;6.08;62.08
3150;BME280;32503;47.748;8.960;2023-02-21T00:32:37;97422.69;;;6.08;61.68
3150;BME280;32503;47.748;8.960;2023-02-21T00:35:21;97423.13;;;6.01;61.15
3150;BME280;32503;47.748;8.960;2023-02-21T00:38:06;97402.38;;;5.84;61.50
3150;BME280;32503;47.748;8.960;2023-02-21T00:40:51;97428.13;;;5.94;61.52
3150;BME280;32503;47.748;8.960;2023-02-21T00:43:35;97416.56;;;5.85;61.30
3150;BME280;32503;47.748;8.960;2023-02-21T00:46:22;97421.63;;;5.86;61.45
3150;BME280;32503;47.748;8.960;2023-02-21T00:49:06;97425.59;;;5.89;61.38
3150;BME280;32503;47.748;8.960;2023-02-21T00:51:51;97421.94;;;5.85;60.78
3150;BME280;32503;47.748;8.960;2023-02-21T00:54:36;97419.41;;;5.80;61.38
3150;BME280;32503;47.748;8.960;2023-02-21T00:57:21;97412.59;;;5.74;61.61
3150;BME280;32503;47.748;8.960;2023-02-21T01:00:12;97407.50;;;5.63;61.92
3150;BME280;32503;47.748;8.960;2023-02-21T01:02:58;97417.22;;;5.59;61.67
3150;BME280;32503;47.748;8.960;2023-02-21T01:05:43;97407.13;;;5.56;62.23
3150;BME280;32503;47.748;8.960;2023-02-21T01:08:27;97402.38;;;5.53;61.96
3150;BME280;32503;47.748;8.960;2023-02-21T01:11:14;97422.28;;;5.61;61.90
3150;BME280;32503;47.748;8.960;2023-02-21T01:13:59;97411.88;;;5.59;61.47
3150;BME280;32503;47.748;8.960;2023-02-21T01:16:44;97418.47;;;5.53;62.13
3150;BME280;32503;47.748;8.960;2023-02-21T01:19:30;97416.53;;;5.45;62.31
3150;BME280;32503;47.748;8.960;2023-02-21T01:22:15;97414.50;;;5.50;62.32
3150;BME280;32503;47.748;8.960;2023-02-21T01:25:00;97406.16;;;5.52;61.96
3150;BME280;32503;47.748;8.960;2023-02-21T01:27:45;97414.31;;;5.47;62.08
3150;BME280;32503;47.748;8.960;2023-02-21T01:30:29;97407.81;;;5.39;62.41
3150;BME280;32503;47.748;8.960;2023-02-21T01:33:14;97423.13;;;5.39;62.05
3150;BME280;32503;47.748;8.960;2023-02-21T01:36:00;97416.25;;;5.24;62.50
3150;BME280;32503;47.748;8.960;2023-02-21T01:38:44;97405.63;;;5.19;62.73
3150;BME280;32503;47.748;8.960;2023-02-21T01:41:29;97404.97;;;5.13;62.96
3150;BME280;32503;47.748;8.960;2023-02-21T01:44:34;97385.84;;;5.06;63.00
3150;BME280;32503;47.748;8.960;2023-02-21T01:47:19;97399.25;;;5.06;63.17
3150;BME280;32503;47.748;8.960;2023-02-21T01:50:13;97388.28;;;4.93;63.55
3150;BME280;32503;47.748;8.960;2023-02-21T01:53:00;97401.69;;;4.93;63.73
3150;BME280;32503;47.748;8.960;2023-02-21T01:55:47;97389.25;;;4.98;63.63
3150;BME280;32503;47.748;8.960;2023-02-21T01:58:32;97387.69;;;4.97;63.55
3150;BME280;32503;47.748;8.960;2023-02-21T02:01:28;97385.59;;;4.93;64.90
3150;BME280;32503;47.748;8.960;2023-02-21T02:04:14;97399.13;;;4.88;65.21
3150;BME280;32503;47.748;8.960;2023-02-21T02:06:59;97390.22;;;4.79;65.36
3150;BME280;32503;47.748;8.960;2023-02-21T02:09:45;97394.63;;;4.75;65.46
3150;BME280;32503;47.748;8.960;2023-02-21T02:12:52;97400.75;;;4.75;65.34
3150;BME280;32503;47.748;8.960;2023-02-21T02:15:32;97405.81;;;4.77;65.15
3150;BME280;32503;47.748;8.960;2023-02-21T02:18:36;97398.16;;;4.84;65.11
3150;BME280;32503;47.748;8.960;2023-02-21T02:22:11;97397.66;;;4.82;64.74
3150;BME280;32503;47.748;8.960;2023-02-21T02:24:59;97404.91;;;4.82;64.63
3150;BME280;32503;47.748;8.960;2023-02-21T02:27:49;97386.69;;;4.70;64.38
3150;BME280;32503;47.748;8.960;2023-02-21T02:31:09;97391.25;;;4.69;64.66
3150;BME280;32503;47.748;8.960;2023-02-21T02:36:43;97391.31;;;4.55;64.34
3150;BME280;32503;47.748;8.960;2023-02-21T02:39:22;97390.31;;;4.51;64.37
3150;BME280;32503;47.748;8.960;2023-02-21T02:41:59;97369.72;;;4.38;64.28
3150;BME280;32503;47.748;8.960;2023-02-21T02:44:33;97377.66;;;4.43;64.51
3150;BME280;32503;47.748;8.960;2023-02-21T02:47:04;97379.50;;;4.43;64.36
3150;BME280;32503;47.748;8.960;2023-02-21T02:49:37;97369.09;;;4.41;64.55
3150;BME280;32503;47.748;8.960;2023-02-21T02:52:09;97379.31;;;4.39;64.45
3150;BME280;32503;47.748;8.960;2023-02-21T02:54:36;97382.00;;;4.39;64.29
3150;BME280;32503;47.748;8.960;2023-02-21T02:57:06;97376.44;;;4.49;63.97
3150;BME280;32503;47.748;8.960;2023-02-21T02:59:38;97366.94;;;4.43;63.47
3150;BME280;32503;47.748;8.960;2023-02-21T03:02:33;97370.28;;;4.49;63.59
3150;BME280;32503;47.748;8.960;2023-02-21T03:05:17;97358.72;;;4.40;63.12
3150;BME280;32503;47.748;8.960;2023-02-21T03:07:58;97369.09;;;4.41;63.38
3150;BME280;32503;47.748;8.960;2023-02-21T03:10:37;97364.97;;;4.35;63.56
3150;BME280;32503;47.748;8.960;2023-02-21T03:13:14;97366.97;;;4.29;63.47
3150;BME280;32503;47.748;8.960;2023-02-21T03:15:48;97361.44;;;4.26;63.19
3150;BME280;32503;47.748;8.960;2023-02-21T03:18:23;97370.91;;;4.32;63.14
3150;BME280;32503;47.748;8.960;2023-02-21T03:20:55;97375.69;;;4.21;63.69
3150;BME280;32503;47.748;8.960;2023-02-21T03:23:27;97369.19;;;4.13;64.10
3150;BME280;32503;47.748;8.960;2023-02-21T03:25:57;97374.53;;;4.13;64.24
3150;BME280;32503;47.748;8.960;2023-02-21T03:28:26;97362.81;;;4.09;64.40
3150;BME280;32503;47.748;8.960;2023-02-21T03:30:55;97363.63;;;4.10;64.09
3150;BME280;32503;47.748;8.960;2023-02-21T03:33:25;97367.56;;;4.12;64.20
3150;BME280;32503;47.748;8.960;2023-02-21T03:35:52;97357.78;;;4.08;63.84
3150;BME280;32503;47.748;8.960;2023-02-21T03:38:20;97365.19;;;4.11;64.12
3150;BME280;32503;47.748;8.960;2023-02-21T03:40:48;97362.31;;;4.07;63.92
3150;BME280;32503;47.748;8.960;2023-02-21T03:43:15;97361.84;;;4.05;63.77
3150;BME280;32503;47.748;8.960;2023-02-21T03:45:42;97368.97;;;4.10;63.43
3150;BME280;32503;47.748;8.960;2023-02-21T03:48:09;97369.75;;;4.10;63.74
3150;BME280;32503;47.748;8.960;2023-02-21T03:50:36;97368.16;;;4.09;63.57
3150;BME280;32503;47.748;8.960;2023-02-21T03:53:04;97351.34;;;3.95;63.73
3150;BME280;32503;47.748;8.960;2023-02-21T03:55:31;97355.91;;;3.94;64.05
3150;BME280;32503;47.748;8.960;2023-02-21T03:58:00;97362.13;;;3.90;64.17
3150;BME280;32503;47.748;8.960;2023-02-21T04:00:27;97358.50;;;3.86;64.50
3150;BME280;32503;47.748;8.960;2023-02-21T04:02:54;97360.69;;;3.84;64.65
3150;BME280;32503;47.748;8.960;2023-02-21T04:05:21;97363.44;;;3.78;64.81
3150;BME280;32503;47.748;8.960;2023-02-21T04:07:48;97353.13;;;3.72;65.14
3150;BME280;32503;47.748;8.960;2023-02-21T04:10:15;97364.22;;;3.65;65.79
3150;BME280;32503;47.748;8.960;2023-02-21T04:12:42;97362.16;;;3.62;65.71
3150;BME280;32503;47.748;8.960;2023-02-21T04:15:11;97360.88;;;3.73;65.17
3150;BME280;32503;47.748;8.960;2023-02-21T04:17:38;97354.03;;;3.67;65.35
3150;BME280;32503;47.748;8.960;2023-02-21T04:20:06;97350.16;;;3.59;65.74
3150;BME280;32503;47.748;8.960;2023-02-21T04:22:33;97361.66;;;3.60;65.62
3150;BME280;32503;47.748;8.960;2023-02-21T04:25:00;97358.56;;;3.53;65.70
3150;BME280;32503;47.748;8.960;2023-02-21T04:27:27;97353.44;;;3.42;65.55
3150;BME280;32503;47.748;8.960;2023-02-21T04:29:55;97365.50;;;3.54;65.31
3150;BME280;32503;47.748;8.960;2023-02-21T04:32:23;97364.94;;;3.57;65.07
3150;BME280;32503;47.748;8.960;2023-02-21T04:34:50;97360.66;;;3.56;64.73
3150;BME280;32503;47.748;8.960;2023-02-21T04:37:17;97364.63;;;3.58;65.26
3150;BME280;32503;47.748;8.960;2023-02-21T04:39:44;97367.78;;;3.47;65.48
3150;BME280;32503;47.748;8.960;2023-02-21T04:42:11;97375.50;;;3.48;65.47
3150;BME280;32503;47.748;8.960;2023-02-21T04:44:38;97374.19;;;3.46;64.98
3150;BME280;32503;47.748;8.960;2023-02-21T04:47:05;97367.88;;;3.41;65.35
3150;BME280;32503;47.748;8.960;2023-02-21T04:49:34;97379.56;;;3.46;65.24
3150;BME280;32503;47.748;8.960;2023-02-21T04:52:01;97374.72;;;3.48;65.04
3150;BME280;32503;47.748;8.960;2023-02-21T04:54:28;97377.50;;;3.42;65.28
3150;BME280;32503;47.748;8.960;2023-02-21T04:56:55;97374.09;;;3.37;65.44
3150;BME280;32503;47.748;8.960;2023-02-21T04:59:22;97379.53;;;3.32;65.06
3150;BME280;32503;47.748;8.960;2023-02-21T05:01:49;97381.63;;;3.35;65.24
3150;BME280;32503;47.748;8.960;2023-02-21T05:04:16;97383.50;;;3.34;65.42
3150;BME280;32503;47.748;8.960;2023-02-21T05:06:45;97368.53;;;3.19;65.54
3150;BME280;32503;47.748;8.960;2023-02-21T05:09:13;97381.50;;;3.26;65.89
3150;BME280;32503;47.748;8.960;2023-02-21T05:11:40;97374.88;;;3.23;65.88
3150;BME280;32503;47.748;8.960;2023-02-21T05:14:07;97383.38;;;3.26;66.15
3150;BME280;32503;47.748;8.960;2023-02-21T05:16:34;97375.44;;;3.20;66.12
3150;BME280;32503;47.748;8.960;2023-02-21T05:19:01;97374.66;;;3.20;66.40
3150;BME280;32503;47.748;8.960;2023-02-21T05:21:28;97373.97;;;3.28;66.21
3150;BME280;32503;47.748;8.960;2023-02-21T05:23:57;97370.72;;;3.31;66.04
3150;BME280;32503;47.748;8.960;2023-02-21T05:26:26;97355.97;;;3.20;65.51
3150;BME280;32503;47.748;8.960;2023-02-21T05:29:02;97372.31;;;3.32;65.17
3150;BME280;32503;47.748;8.960;2023-02-21T05:31:29;97362.78;;;3.26;65.28
3150;BME280;32503;47.748;8.960;2023-02-21T05:33:57;97372.31;;;3.32;65.09
3150;BME280;32503;47.748;8.960;2023-02-21T05:36:24;97374.19;;;3.32;64.93
3150;BME280;32503;47.748;8.960;2023-02-21T05:38:53;97379.53;;;3.32;64.82
3150;BME280;32503;47.748;8.960;2023-02-21T05:41:23;97373.66;;;3.16;65.29
3150;BME280;32503;47.748;8.960;2023-02-21T05:43:50;97357.97;;;2.95;65.57
3150;BME280;32503;47.748;8.960;2023-02-21T05:46:20;97367.47;;;3.01;66.05
3150;BME280;32503;47.748;8.960;2023-02-21T05:48:48;97379.19;;;3.06;66.19
3150;BME280;32503;47.748;8.960;2023-02-21T05:51:16;97392.47;;;3.11;65.69
3150;BME280;32503;47.748;8.960;2023-02-21T05:53:44;97377.66;;;2.99;65.85
3150;BME280;32503;47.748;8.960;2023-02-21T05:56:12;97387.63;;;4.15;70.21
3150;BME280;32503;47.748;8.960;2023-02-21T05:58:40;97387.31;;;4.16;68.15
3150;BME280;32503;47.748;8.960;2023-02-21T06:01:07;97336.69;;;3.78;66.58
3150;BME280;32503;47.748;8.960;2023-02-21T06:03:34;97382.06;;;3.97;65.65
3150;BME280;32503;47.748;8.960;2023-02-21T06:06:02;97379.69;;;3.82;65.44
3150;BME280;32503;47.748;8.960;2023-02-21T06:08:29;97384.44;;;3.71;65.02
3150;BME280;32503;47.748;8.960;2023-02-21T06:10:57;97387.00;;;3.63;65.01
3150;BME280;32503;47.748;8.960;2023-02-21T06:13:24;97386.91;;;3.54;64.68
3150;BME280;32503;47.748;8.960;2023-02-21T06:15:54;97375.09;;;3.41;64.73
3150;BME280;32503;47.748;8.960;2023-02-21T06:18:21;97384.78;;;3.37;64.75
3150;BME280;32503;47.748;8.960;2023-02-21T06:20:48;97393.31;;;3.39;64.36
3150;BME280;32503;47.748;8.960;2023-02-21T06:23:15;97385.09;;;3.35;64.88
3150;BME280;32503;47.748;8.960;2023-02-21T06:25:42;97384.00;;;3.36;64.38
3150;BME280;32503;47.748;8.960;2023-02-21T06:28:09;97391.63;;;3.43;64.68
3150;BME280;32503;47.748;8.960;2023-02-21T06:30:36;97386.41;;;3.52;64.39
3150;BME280;32503;47.748;8.960;2023-02-21T06:33:05;97377.78;;;3.83;64.58
3150;BME280;32503;47.748;8.960;2023-02-21T06:35:32;97378.38;;;4.07;64.19
3150;BME280;32503;47.748;8.960;2023-02-21T06:37:59;97383.59;;;4.40;63.92
3150;BME280;32503;47.748;8.960;2023-02-21T06:40:26;97380.47;;;4.83;63.26
3150;BME280;32503;47.748;8.960;2023-02-21T06:42:53;97383.53;;;5.13;62.58
3150;BME280;32503;47.748;8.960;2023-02-21T06:45:20;97389.53;;;5.41;61.79
3150;BME280;32503;47.748;8.960;2023-02-21T06:47:47;97400.28;;;5.73;60.68
3150;BME280;32503;47.748;8.960;2023-02-21T06:50:16;97391.75;;;6.02;60.04
3150;BME280;32503;47.748;8.960;2023-02-21T06:52:43;97396.06;;;6.29;59.27
3150;BME280;32503;47.748;8.960;2023-02-21T06:55:10;97389.13;;;6.37;58.15
3150;BME280;32503;47.748;8.960;2023-02-21T06:57:37;97397.34;;;6.40;57.84
3150;BME280;32503;47.748;8.960;2023-02-21T07:00:05;97392.13;;;6.35;57.85
3150;BME280;32503;47.748;8.960;2023-02-21T07:02:32;97396.09;;;6.47;57.68
3150;BME280;32503;47.748;8.960;2023-02-21T07:04:59;97396.59;;;6.66;56.45
3150;BME280;32503;47.748;8.960;2023-02-21T07:07:28;97401.97;;;6.92;56.11
3150;BME280;32503;47.748;8.960;2023-02-21T07:09:55;97392.00;;;7.10;55.44
3150;BME280;32503;47.748;8.960;2023-02-21T07:12:22;97404.72;;;7.57;54.98
3150;BME280;32503;47.748;8.960;2023-02-21T07:14:49;97407.44;;;7.95;52.95
3150;BME280;32503;47.748;8.960;2023-02-21T07:17:16;97413.25;;;8.36;51.93
3150;BME280;32503;47.748;8.960;2023-02-21T07:19:43;97401.97;;;8.72;50.12
3150;BME280;32503;47.748;8.960;2023-02-21T07:22:10;97407.16;;;8.99;50.26
3150;BME280;32503;47.748;8.960;2023-02-21T07:24:39;97410.38;;;9.46;49.10
3150;BME280;32503;47.748;8.960;2023-02-21T07:27:06;97408.63;;;9.87;48.60
3150;BME280;32503;47.748;8.960;2023-02-21T07:29:33;97408.44;;;10.30;47.41
3150;BME280;32503;47.748;8.960;2023-02-21T07:32:00;97417.06;;;10.85;46.25
3150;BME280;32503;47.748;8.960;2023-02-21T07:34:27;97418.00;;;11.05;45.04
3150;BME280;32503;47.748;8.960;2023-02-21T07:36:54;97415.84;;;11.83;43.93
3150;BME280;32503;47.748;8.960;2023-02-21T07:39:21;97419.81;;;12.88;42.21
3150;BME280;32503;47.748;8.960;2023-02-21T07:41:51;97416.88;;;13.75;40.53
3150;BME280;32503;47.748;8.960;2023-02-21T07:44:18;97412.16;;;14.45;39.02
3150;BME280;32503;47.748;8.960;2023-02-21T07:46:45;97420.31;;;15.28;37.70
3150;BME280;32503;47.748;8.960;2023-02-21T07:49:12;97422.88;;;15.85;36.55
3150;BME280;32503;47.748;8.960;2023-02-21T07:51:39;97413.25;;;15.99;35.14
3150;BME280;32503;47.748;8.960;2023-02-21T07:54:07;97427.84;;;16.21;35.46
3150;BME280;32503;47.748;8.960;2023-02-21T07:56:34;97413.00;;;16.18;35.55
3150;BME280;32503;47.748;8.960;2023-02-21T07:59:02;97419.72;;;16.83;34.70
3150;BME280;32503;47.748;8.960;2023-02-21T08:01:29;97412.16;;;17.43;33.49
3150;BME280;32503;47.748;8.960;2023-02-21T08:03:56;97410.34;;;17.87;32.79
3150;BME280;32503;47.748;8.960;2023-02-21T08:06:23;97399.41;;;17.94;32.30
3150;BME280;32503;47.748;8.960;2023-02-21T08:08:50;97400.56;;;17.89;32.30
3150;BME280;32503;47.748;8.960;2023-02-21T08:11:17;97411.06;;;17.69;32.93
3150;BME280;32503;47.748;8.960;2023-02-21T08:13:44;97398.88;;;17.34;32.12
3150;BME280;32503;47.748;8.960;2023-02-21T08:16:13;97404.06;;;16.77;33.12
3150;BME280;32503;47.748;8.960;2023-02-21T08:18:40;97409.13;;;16.19;34.06
3150;BME280;32503;47.748;8.960;2023-02-21T08:21:09;97406.84;;;15.80;35.60
3150;BME280;32503;47.748;8.960;2023-02-21T08:23:36;97406.63;;;15.59;35.99
3150;BME280;32503;47.748;8.960;2023-02-21T08:26:04;97401.84;;;15.48;36.71
3150;BME280;32503;47.748;8.960;2023-02-21T08:28:31;97409.75;;;15.61;36.23
3150;BME280;32503;47.748;8.960;2023-02-21T08:30:58;97405.84;;;15.62;36.41
3150;BME280;32503;47.748;8.960;2023-02-21T08:33:27;97409.06;;;15.67;35.83
3150;BME280;32503;47.748;8.960;2023-02-21T08:35:54;97404.47;;;15.75;36.31
3150;BME280;32503;47.748;8.960;2023-02-21T08:38:21;97398.78;;;15.91;36.65
3150;BME280;32503;47.748;8.960;2023-02-21T08:40:48;97405.53;;;15.67;36.27
3150;BME280;32503;47.748;8.960;2023-02-21T08:43:17;97401.84;;;15.48;36.67
3150;BME280;32503;47.748;8.960;2023-02-21T08:45:44;97394.22;;;15.27;37.94
3150;BME280;32503;47.748;8.960;2023-02-21T08:48:11;97393.88;;;14.98;38.33
3150;BME280;32503;47.748;8.960;2023-02-21T08:50:40;97394.91;;;15.21;38.80
3150;BME280;32503;47.748;8.960;2023-02-21T08:53:07;97392.06;;;15.44;38.67
3150;BME280;32503;47.748;8.960;2023-02-21T08:55:35;97389.94;;;15.64;38.54
3150;BME280;32503;47.748;8.960;2023-02-21T08:58:02;97393.22;;;15.80;39.00
3150;BME280;32503;47.748;8.960;2023-02-21T09:00:29;97394.25;;;16.06;38.44
3150;BME280;32503;47.748;8.960;2023-02-21T09:02:57;97379.16;;;16.23;37.73
3150;BME280;32503;47.748;8.960;2023-02-21T09:05:26;97376.13;;;16.35;37.49
3150;BME280;32503;47.748;8.960;2023-02-21T09:07:58;97390.66;;;16.50;37.75
3150;BME280;32503;47.748;8.960;2023-02-21T09:10:29;97385.25;;;16.57;37.49
3150;BME280;32503;47.748;8.960;2023-02-21T09:12:58;97385.50;;;16.34;37.19
3150;BME280;32503;47.748;8.960;2023-02-21T09:15:26;97386.53;;;16.19;37.82
3150;BME280;32503;47.748;8.960;2023-02-21T09:17:53;97379.59;;;16.28;37.84
3150;BME280;32503;47.748;8.960;2023-02-21T09:20:23;97380.91;;;16.49;38.32
3150;BME280;32503;47.748;8.960;2023-02-21T09:22:51;97373.91;;;16.55;38.05
3150;BME280;32503;47.748;8.960;2023-02-21T09:25:22;97372.78;;;16.60;37.86
3150;BME280;32503;47.748;8.960;2023-02-21T09:27:50;97384.19;;;16.80;38.39
3150;BME280;32503;47.748;8.960;2023-02-21T09:30:20;97380.75;;;16.90;38.14
3150;BME280;32503;47.748;8.960;2023-02-21T09:32:49;97379.22;;;16.96;37.98
3150;BME280;32503;47.748;8.960;2023-02-21T09:35:16;97361.19;;;16.81;38.26
3150;BME280;32503;47.748;8.960;2023-02-21T09:37:44;97366.75;;;17.02;37.92
3150;BME280;32503;47.748;8.960;2023-02-21T09:40:20;97363.66;;;17.11;37.57
3150;BME280;32503;47.748;8.960;2023-02-21T09:42:51;97357.47;;;17.29;37.95
3150;BME280;32503;47.748;8.960;2023-02-21T09:45:20;97359.03;;;17.19;37.71
3150;BME280;32503;47.748;8.960;2023-02-21T09:47:52;97357.44;;;17.11;37.88
3150;BME280;32503;47.748;8.960;2023-02-21T09:50:25;97354.31;;;17.09;38.70
3150;BME280;32503;47.748;8.960;2023-02-21T09:52:56;97353.56;;;17.19;37.24
3150;BME280;32503;47.748;8.960;2023-02-21T09:55:30;97330.91;;;17.22;37.84
3150;BME280;32503;47.748;8.960;2023-02-21T09:57:58;97336.84;;;17.49;37.02
3150;BME280;32503;47.748;8.960;2023-02-21T10:00:32;97336.41;;;17.40;37.34
3150;BME280;32503;47.748;8.960;2023-02-21T10:06:11;97329.28;;;16.99;37.95
3150;BME280;32503;47.748;8.960;2023-02-21T10:08:49;97331.22;;;16.95;38.03
3150;BME280;32503;47.748;8.960;2023-02-21T10:11:40;97334.31;;;16.90;37.84
3150;BME280;32503;47.748;8.960;2023-02-21T10:14:22;97324.44;;;16.67;38.57
3150;BME280;32503;47.748;8.960;2023-02-21T10:16:56;97312.41;;;16.76;38.77
3150;BME280;32503;47.748;8.960;2023-02-21T10:19:30;97331.47;;;16.65;38.63
3150;BME280;32503;47.748;8.960;2023-02-21T10:22:03;97337.59;;;16.47;38.90
3150;BME280;32503;47.748;8.960;2023-02-21T10:24:36;97338.31;;;16.34;39.76
3150;BME280;32503;47.748;8.960;2023-02-21T10:27:09;97326.56;;;16.22;39.57
3150;BME280;32503;47.748;8.960;2023-02-21T10:29:42;97326.16;;;16.20;40.48
3150;BME280;32503;47.748;8.960;2023-02-21T10:32:11;97327.91;;;16.50;40.25
3150;BME280;32503;47.748;8.960;2023-02-21T10:34:39;97310.38;;;16.58;39.20
3150;BME280;32503;47.748;8.960;2023-02-21T10:37:27;97317.59;;;16.99;39.27
3150;BME280;32503;47.748;8.960;2023-02-21T10:40:01;97308.69;;;17.27;39.43
3150;BME280;32503;47.748;8.960;2023-02-21T10:42:38;97307.53;;;17.39;39.01
3150;BME280;32503;47.748;8.960;2023-02-21T10:45:08;97312.63;;;17.40;38.57
3150;BME280;32503;47.748;8.960;2023-02-21T10:47:49;97299.72;;;17.44;38.61
3150;BME280;32503;47.748;8.960;2023-02-21T10:50:48;97305.59;;;17.65;38.64
3150;BME280;32503;47.748;8.960;2023-02-21T10:53:28;97295.06;;;17.74;38.20
3150;BME280;32503;47.748;8.960;2023-02-21T10:58:54;97287.19;;;18.30;37.81
3150;BME280;32503;47.748;8.960;2023-02-21T11:01:32;97289.50;;;18.38;37.61
3150;BME280;32503;47.748;8.960;2023-02-21T11:04:03;97285.53;;;18.65;36.91
3150;BME280;32503;47.748;8.960;2023-02-21T11:06:35;97280.34;;;18.81;36.89
3150;BME280;32503;47.748;8.960;2023-02-21T11:09:29;97279.19;;;18.89;35.84
3150;BME280;32503;47.748;8.960;2023-02-21T11:12:03;97273.28;;;18.94;36.72
3150;BME280;32503;47.748;8.960;2023-02-21T11:14:33;97268.25;;;18.82;36.78
3150;BME280;32503;47.748;8.960;2023-02-21T11:17:14;97248.16;;;18.15;36.87
3150;BME280;32503;47.748;8.960;2023-02-21T11:19:45;97262.56;;;18.26;37.89
3150;BME280;32503;47.748;8.960;2023-02-21T11:22:13;97251.19;;;18.42;37.92
3150;BME280;32503;47.748;8.960;2023-02-21T11:24:57;97246.84;;;18.55;37.37
3150;BME280;32503;47.748;8.960;2023-02-21T11:27:28;97247.53;;;18.70;37.56
3150;BME280;32503;47.748;8.960;2023-02-21T11:29:57;97242.50;;;18.62;37.30
3150;BME280;32503;47.748;8.960;2023-02-21T11:32:31;97240.53;;;18.66;37.05
3150;BME280;32503;47.748;8.960;2023-02-21T11:35:20;97220.69;;;18.44;36.89
3150;BME280;32503;47.748;8.960;2023-02-21T11:37:52;97216.94;;;17.91;37.97
3150;BME280;32503;47.748;8.960;2023-02-21T11:40:41;97226.31;;;17.72;38.31
3150;BME280;32503;47.748;8.960;2023-02-21T11:43:11;97220.84;;;17.68;38.72
3150;BME280;32503;47.748;8.960;2023-02-21T11:45:49;97216.16;;;17.29;38.88
3150;BME280;32503;47.748;8.960;2023-02-21T11:48:19;97212.97;;;16.80;40.05
3150;BME280;32503;47.748;8.960;2023-02-21T11:50:57;97200.53;;;16.97;40.40
3150;BME280;32503;47.748;8.960;2023-02-21T11:53:30;97202.88;;;17.20;40.08
3150;BME280;32503;47.748;8.960;2023-02-21T11:56:10;97190.03;;;17.35;39.21
3150;BME280;32503;47.748;8.960;2023-02-21T11:58:46;97184.16;;;17.55;39.00
3150;BME280;32503;47.748;8.960;2023-02-21T12:01:22;97184.16;;;17.55;38.85
3150;BME280;32503;47.748;8.960;2023-02-21T12:04:15;97177.50;;;17.56;38.61
3150;BME280;32503;47.748;8.960;2023-02-21T12:06:51;97168.91;;;17.65;38.88
3150;BME280;32503;47.748;8.960;2023-02-21T12:09:27;97161.84;;;17.81;38.76
3150;BME280;32503;47.748;8.960;2023-02-21T12:12:23;97160.34;;;17.30;39.12
3150;BME280;32503;47.748;8.960;2023-02-21T12:15:04;97150.59;;;17.00;39.55
3150;BME280;32503;47.748;8.960;2023-02-21T12:17:46;97144.69;;;16.73;39.87
3150;BME280;32503;47.748;8.960;2023-02-21T12:20:37;97147.41;;;16.62;40.73
3150;BME280;32503;47.748;8.960;2023-02-21T12:23:17;97123.16;;;16.36;40.99
3150;BME280;32503;47.748;8.960;2023-02-21T12:26:17;97125.19;;;16.67;41.13
3150;BME280;32503;47.748;8.960;2023-02-21T12:29:04;97133.25;;;16.17;40.82
3150;BME280;32503;47.748;8.960;2023-02-21T12:31:52;97112.22;;;16.21;41.05
3150;BME280;32503;47.748;8.960;2023-02-21T12:34:35;97113.06;;;16.43;40.78
3150;BME280;32503;47.748;8.960;2023-02-21T12:37:17;97113.88;;;16.65;40.42
3150;BME280;32503;47.748;8.960;2023-02-21T12:40:03;97106.06;;;16.67;40.27
3150;BME280;32503;47.748;8.960;2023-02-21T12:42:59;97105.66;;;16.47;40.23
3150;BME280;32503;47.748;8.960;2023-02-21T12:45:52;97097.38;;;16.08;41.44
3150;BME280;32503;47.748;8.960;2023-02-21T12:48:30;97084.19;;;16.32;41.47
3150;BME280;32503;47.748;8.960;2023-02-21T12:51:06;97078.75;;;16.35;40.53
3150;BME280;32503;47.748;8.960;2023-02-21T12:53:39;97056.53;;;16.37;40.57
3150;BME280;32503;47.748;8.960;2023-02-21T12:56:12;97073.31;;;16.57;40.61
3150;BME280;32503;47.748;8.960;2023-02-21T12:58:45;97082.69;;;16.59;40.52
3150;BME280;32503;47.748;8.960;2023-02-21T13:01:17;97071.75;;;16.45;40.46
3150;BME280;32503;47.748;8.960;2023-02-21T13:03:59;97054.63;;;16.70;40.34
3150;BME280;32503;47.748;8.960;2023-02-21T13:06:31;97062.44;;;16.93;39.93
3150;BME280;32503;47.748;8.960;2023-02-21T13:09:14;97058.09;;;17.17;39.75
3150;BME280;32503;47.748;8.960;2023-02-21T13:11:52;97058.09;;;17.28;39.51
3150;BME280;32503;47.748;8.960;2023-02-21T13:14:26;97059.28;;;17.23;39.19
3150;BME280;32503;47.748;8.960;2023-02-21T13:16:54;97047.59;;;16.94;39.57
3150;BME280;32503;47.748;8.960;2023-02-21T13:19:22;97039.38;;;17.04;39.38
3150;BME280;32503;47.748;8.960;2023-02-21T13:22:07;97038.59;;;17.11;39.38
3150;BME280;32503;47.748;8.960;2023-02-21T13:25:20;97025.31;;;17.31;39.69
3150;BME280;32503;47.748;8.960;2023-02-21T13:27:56;97014.00;;;17.22;38.92
3150;BME280;32503;47.748;8.960;2023-02-21T13:30:38;97004.56;;;17.44;38.70
3150;BME280;32503;47.748;8.960;2023-02-21T13:33:19;97014.72;;;17.48;38.31
3150;BME280;32503;47.748;8.960;2023-02-21T13:35:48;97007.69;;;17.39;38.28
3150;BME280;32503;47.748;8.960;2023-02-21T13:38:19;97006.88;;;17.53;38.14
3150;BME280;32503;47.748;8.960;2023-02-21T13:40:51;96962.84;;;17.33;38.40
3150;BME280;32503;47.748;8.960;2023-02-21T13:43:23;96995.09;;;17.67;38.05
3150;BME280;32503;47.748;8.960;2023-02-21T13:45:51;96987.22;;;17.80;37.36
3150;BME280;32503;47.748;8.960;2023-02-21T13:48:25;96991.88;;;17.94;37.58
3150;BME280;32503;47.748;8.960;2023-02-21T13:50:55;96983.25;;;17.99;36.93
3150;BME280;32503;47.748;8.960;2023-02-21T13:53:26;96960.63;;;17.95;36.85
3150;BME280;32503;47.748;8.960;2023-02-21T13:56:16;96966.75;;;18.13;36.52
3150;BME280;32503;47.748;8.960;2023-02-21T13:58:44;96972.50;;;18.26;36.61
3150;BME280;32503;47.748;8.960;2023-02-21T14:01:48;96963.78;;;18.42;39.45
3150;BME280;32503;47.748;8.960;2023-02-21T14:05:02;96953.91;;;18.55;39.27
3150;BME280;32503;47.748;8.960;2023-02-21T14:07:53;96956.63;;;18.55;36.57